Time,TemperatureF,DewpointF,PressureIn,WindDirection,WindDirectionDegrees,WindSpeedMPH,WindSpeedGustMPH,Humidity,HourlyPrecipIn,Conditions,Clouds,dailyrainin,SoftwareType,DateUTC
2013-08-13 00:01:00,71.1,56.6,29.88,East,90,0.4,0.4,60,0.00,,,0.00,WUHU216HW,2013-08-13 07:01:00,
2013-08-13 00:06:00,70.7,56.3,29.88,North,0,0.0,0.0,60,0.00,,,0.00,WUHU216HW,2013-08-13 07:06:00,
2013-08-13 00:11:00,70.4,55.9,29.89,North,0,0.0,0.0,60,0.00,,,0.00,WUHU216HW,2013-08-13 07:11:00,
2013-08-13 00:16:00,70.6,56.5,29.89,North,0,0.0,0.0,61,0.00,,,0.00,WUHU216HW,2013-08-13 07:16:00,
2013-08-13 00:21:00,70.7,56.3,29.89,North,0,0.0,0.0,60,0.00,,,0.00,WUHU216HW,2013-08-13 07:21:00,
2013-08-13 00:26:00,70.4,56.3,29.89,North,0,0.3,0.4,61,0.00,,,0.00,WUHU216HW,2013-08-13 07:26:00,
2013-08-13 00:31:00,70.2,56.2,29.89,North,0,0.0,0.0,61,0.00,,,0.00,WUHU216HW,2013-08-13 07:31:00,
2013-08-13 00:36:00,69.8,55.9,29.89,North,0,0.0,0.0,61,0.00,,,0.00,WUHU216HW,2013-08-13 07:36:00,
2013-08-13 00:41:00,69.8,55.9,29.89,North,0,0.0,0.0,61,0.00,,,0.00,WUHU216HW,2013-08-13 07:41:00,
2013-08-13 00:46:00,69.8,55.9,29.89,North,0,0.0,0.0,61,0.00,,,0.00,WUHU216HW,2013-08-13 07:46:00,
2013-08-13 00:51:00,69.5,55.5,29.89,North,0,0.3,0.4,61,0.00,,,0.00,WUHU216HW,2013-08-13 07:51:00,
2013-08-13 00:56:00,69.1,55.5,29.89,North,0,0.0,0.0,62,0.00,,,0.00,WUHU216HW,2013-08-13 07:56:00,
2013-08-13 01:01:00,69.1,55.5,29.89,North,0,0.0,0.0,62,0.00,,,0.00,WUHU216HW,2013-08-13 08:01:00,
2013-08-13 01:06:00,69.1,55.5,29.89,NNE,23,0.4,0.4,62,0.00,,,0.00,WUHU216HW,2013-08-13 08:06:00,
2013-08-13 01:11:00,69.3,56.2,29.89,North,0,0.0,0.0,63,0.00,,,0.00,WUHU216HW,2013-08-13 08:11:00,
2013-08-13 01:16:00,69.3,55.7,29.89,North,0,0.0,0.0,62,0.00,,,0.00,WUHU216HW,2013-08-13 08:16:00,
2013-08-13 01:21:00,69.1,55.5,29.88,NE,45,0.2,0.2,62,0.00,,,0.00,WUHU216HW,2013-08-13 08:21:00,
2013-08-13 01:26:00,68.9,55.4,29.88,NE,45,0.5,0.7,62,0.00,,,0.00,WUHU216HW,2013-08-13 08:26:00,
2013-08-13 01:31:00,68.8,55.2,29.88,North,0,0.0,0.0,62,0.00,,,0.00,WUHU216HW,2013-08-13 08:31:00,
2013-08-13 01:36:00,68.4,55.3,29.88,North,0,0.0,0.0,63,0.00,,,0.00,WUHU216HW,2013-08-13 08:36:00,
2013-08-13 01:41:00,68.2,55.1,29.88,NNW,338,0.3,0.4,63,0.00,,,0.00,WUHU216HW,2013-08-13 08:41:00,
2013-08-13 01:46:00,67.9,54.8,29.88,North,0,0.0,0.0,63,0.00,,,0.00,WUHU216HW,2013-08-13 08:46:00,
2013-08-13 01:51:00,67.7,55.0,29.88,North,0,0.0,0.0,64,0.00,,,0.00,WUHU216HW,2013-08-13 08:51:00,
2013-08-13 01:57:00,67.3,54.7,29.88,ENE,68,0.5,0.7,64,0.00,,,0.00,WUHU216HW,2013-08-13 08:57:00,
2013-08-13 02:02:00,67.1,54.9,29.88,North,0,0.0,0.0,65,0.00,,,0.00,WUHU216HW,2013-08-13 09:02:00,
2013-08-13 02:07:00,67.0,54.8,29.88,North,0,0.0,0.0,65,0.00,,,0.00,WUHU216HW,2013-08-13 09:07:00,
2013-08-13 02:12:00,66.6,54.5,29.88,North,0,0.0,0.0,65,0.00,,,0.00,WUHU216HW,2013-08-13 09:12:00,
2013-08-13 02:17:00,66.4,54.3,29.88,North,0,0.0,0.0,65,0.00,,,0.00,WUHU216HW,2013-08-13 09:17:00,
2013-08-13 02:22:00,66.2,54.1,29.89,North,0,0.0,0.0,65,0.00,,,0.00,WUHU216HW,2013-08-13 09:22:00,
2013-08-13 02:27:00,65.9,54.2,29.88,North,0,0.0,0.0,66,0.00,,,0.00,WUHU216HW,2013-08-13 09:27:00,
2013-08-13 02:32:00,65.9,54.2,29.88,North,0,0.0,0.0,66,0.00,,,0.00,WUHU216HW,2013-08-13 09:32:00,
2013-08-13 02:37:00,65.5,53.8,29.89,NE,45,0.3,0.4,66,0.00,,,0.00,WUHU216HW,2013-08-13 09:37:00,
2013-08-13 02:42:00,65.5,54.3,29.89,North,0,0.0,0.0,67,0.00,,,0.00,WUHU216HW,2013-08-13 09:42:00,
2013-08-13 02:47:00,65.5,54.3,29.89,North,0,0.0,0.0,67,0.00,,,0.00,WUHU216HW,2013-08-13 09:47:00,
2013-08-13 02:52:00,65.3,54.1,29.89,North,0,0.0,0.0,67,0.00,,,0.00,WUHU216HW,2013-08-13 09:52:00,
2013-08-13 02:57:00,65.2,54.4,29.89,North,0,0.0,0.0,68,0.00,,,0.00,WUHU216HW,2013-08-13 09:57:00,
2013-08-13 03:02:00,65.2,54.4,29.89,North,0,0.0,0.0,68,0.00,,,0.00,WUHU216HW,2013-08-13 10:02:00,
2013-08-13 03:07:00,65.0,54.2,29.89,North,0,0.0,0.0,68,0.00,,,0.00,WUHU216HW,2013-08-13 10:07:00,
2013-08-13 03:12:00,65.0,54.2,29.89,North,0,0.0,0.0,68,0.00,,,0.00,WUHU216HW,2013-08-13 10:12:00,
2013-08-13 03:17:00,64.8,54.0,29.89,North,0,0.0,0.0,68,0.00,,,0.00,WUHU216HW,2013-08-13 10:17:00,
2013-08-13 03:22:00,64.8,54.0,29.89,North,0,0.0,0.0,68,0.00,,,0.00,WUHU216HW,2013-08-13 10:22:00,
2013-08-13 03:27:00,64.6,53.8,29.89,North,0,0.0,0.0,68,0.00,,,0.00,WUHU216HW,2013-08-13 10:27:00,
2013-08-13 03:32:00,64.4,53.6,29.89,North,0,0.0,0.0,68,0.00,,,0.00,WUHU216HW,2013-08-13 10:32:00,
2013-08-13 03:37:00,64.1,53.7,29.89,North,0,0.0,0.0,69,0.00,,,0.00,WUHU216HW,2013-08-13 10:37:00,
2013-08-13 03:42:00,64.1,54.2,29.89,North,0,0.0,0.0,70,0.00,,,0.00,WUHU216HW,2013-08-13 10:42:00,
2013-08-13 03:47:00,63.9,54.0,29.89,North,0,0.0,0.0,70,0.00,,,0.00,WUHU216HW,2013-08-13 10:47:00,
2013-08-13 03:52:00,63.9,54.0,29.89,North,0,0.0,0.0,70,0.00,,,0.00,WUHU216HW,2013-08-13 10:52:00,
2013-08-13 03:57:00,63.7,53.8,29.89,ENE,68,0.3,0.4,70,0.00,,,0.00,WUHU216HW,2013-08-13 10:57:00,
2013-08-13 04:02:00,63.7,53.8,29.89,North,0,0.0,0.0,70,0.00,,,0.00,WUHU216HW,2013-08-13 11:02:00,
2013-08-13 04:07:00,63.7,53.8,29.89,North,0,0.0,0.0,70,0.00,,,0.00,WUHU216HW,2013-08-13 11:07:00,
2013-08-13 04:12:00,63.9,54.0,29.89,North,0,0.0,0.0,70,0.00,,,0.00,WUHU216HW,2013-08-13 11:12:00,
2013-08-13 04:17:00,63.9,54.0,29.89,North,0,0.0,0.0,70,0.00,,,0.00,WUHU216HW,2013-08-13 11:17:00,
2013-08-13 04:22:00,63.9,54.0,29.89,North,0,0.0,0.0,70,0.00,,,0.00,WUHU216HW,2013-08-13 11:22:00,
2013-08-13 04:27:00,63.9,54.0,29.89,North,0,0.0,0.0,70,0.00,,,0.00,WUHU216HW,2013-08-13 11:27:00,
2013-08-13 04:32:00,63.9,54.0,29.89,North,0,0.0,0.0,70,0.00,,,0.00,WUHU216HW,2013-08-13 11:32:00,
2013-08-13 04:37:00,63.9,54.0,29.89,North,0,0.0,0.0,70,0.00,,,0.00,WUHU216HW,2013-08-13 11:37:00,
2013-08-13 04:42:00,63.7,53.8,29.90,North,0,0.0,0.0,70,0.00,,,0.00,WUHU216HW,2013-08-13 11:42:00,
2013-08-13 04:47:00,63.5,53.6,29.89,North,0,0.0,0.0,70,0.00,,,0.00,WUHU216HW,2013-08-13 11:47:00,
2013-08-13 04:52:00,63.5,53.6,29.90,North,0,0.0,0.0,70,0.00,,,0.00,WUHU216HW,2013-08-13 11:52:00,
2013-08-13 04:57:00,63.4,53.5,29.90,North,0,0.0,0.0,70,0.00,,,0.00,WUHU216HW,2013-08-13 11:57:00,
2013-08-13 05:02:00,63.4,53.5,29.90,SE,135,0.2,0.2,70,0.00,,,0.00,WUHU216HW,2013-08-13 12:02:00,
2013-08-13 05:07:00,63.2,53.6,29.90,North,0,0.0,0.0,71,0.00,,,0.00,WUHU216HW,2013-08-13 12:07:00,
2013-08-13 05:12:00,63.2,53.6,29.90,North,0,0.0,0.0,71,0.00,,,0.00,WUHU216HW,2013-08-13 12:12:00,
2013-08-13 05:17:00,63.0,53.5,29.90,North,0,0.0,0.0,71,0.00,,,0.00,WUHU216HW,2013-08-13 12:17:00,
2013-08-13 05:22:00,63.0,53.5,29.90,North,0,0.0,0.0,71,0.00,,,0.00,WUHU216HW,2013-08-13 12:22:00,
2013-08-13 05:27:00,63.0,53.5,29.90,North,0,0.0,0.0,71,0.00,,,0.00,WUHU216HW,2013-08-13 12:27:00,
2013-08-13 05:32:00,63.0,53.8,29.90,North,0,0.0,0.0,72,0.00,,,0.00,WUHU216HW,2013-08-13 12:32:00,
2013-08-13 05:37:00,63.0,53.8,29.90,SE,135,0.2,0.2,72,0.00,,,0.00,WUHU216HW,2013-08-13 12:37:00,
2013-08-13 05:42:00,63.0,53.8,29.90,SE,135,0.2,0.2,72,0.00,,,0.00,WUHU216HW,2013-08-13 12:42:00,
2013-08-13 05:47:00,63.0,53.8,29.90,North,0,0.0,0.0,72,0.00,,,0.00,WUHU216HW,2013-08-13 12:47:00,
2013-08-13 05:52:00,62.8,53.6,29.90,SE,135,0.2,0.2,72,0.00,,,0.00,WUHU216HW,2013-08-13 12:52:00,
2013-08-13 05:57:00,62.8,53.6,29.90,North,0,0.0,0.0,72,0.00,,,0.00,WUHU216HW,2013-08-13 12:57:00,
2013-08-13 06:02:00,62.6,53.5,29.90,North,0,0.0,0.0,72,0.00,,,0.00,WUHU216HW,2013-08-13 13:02:00,
2013-08-13 06:07:00,62.8,54.0,29.90,North,0,0.0,0.0,73,0.00,,,0.00,WUHU216HW,2013-08-13 13:07:00,
2013-08-13 06:12:00,62.6,53.8,29.90,North,0,0.0,0.0,73,0.00,,,0.00,WUHU216HW,2013-08-13 13:12:00,
2013-08-13 06:17:00,62.6,53.8,29.91,ESE,121,0.3,0.4,73,0.00,,,0.00,WUHU216HW,2013-08-13 13:17:00,
2013-08-13 06:22:00,62.8,54.0,29.91,SE,135,0.2,0.2,73,0.00,,,0.00,WUHU216HW,2013-08-13 13:22:00,
2013-08-13 06:27:00,62.8,54.0,29.91,ESE,117,0.3,0.4,73,0.00,,,0.00,WUHU216HW,2013-08-13 13:27:00,
2013-08-13 06:32:00,63.0,53.8,29.91,ESE,116,0.3,0.4,72,0.00,,,0.00,WUHU216HW,2013-08-13 13:32:00,
2013-08-13 06:37:00,63.0,53.8,29.92,SE,135,0.2,0.2,72,0.00,,,0.00,WUHU216HW,2013-08-13 13:37:00,
2013-08-13 06:42:00,63.0,53.8,29.92,North,0,0.0,0.0,72,0.00,,,0.00,WUHU216HW,2013-08-13 13:42:00,
2013-08-13 06:47:00,63.2,54.0,29.91,North,0,0.0,0.0,72,0.00,,,0.00,WUHU216HW,2013-08-13 13:47:00,
2013-08-13 06:52:00,63.4,53.8,29.92,North,0,0.0,0.0,71,0.00,,,0.00,WUHU216HW,2013-08-13 13:52:00,
2013-08-13 06:57:00,63.7,54.2,29.92,North,0,0.0,0.0,71,0.00,,,0.00,WUHU216HW,2013-08-13 13:57:00,
2013-08-13 07:02:00,64.3,54.7,29.92,SE,135,0.3,0.4,71,0.00,,,0.00,WUHU216HW,2013-08-13 14:02:00,
2013-08-13 07:07:00,64.6,54.7,29.92,SE,124,0.4,0.7,70,0.00,,,0.00,WUHU216HW,2013-08-13 14:07:00,
2013-08-13 07:12:00,65.2,55.2,29.92,ESE,106,0.4,0.7,70,0.00,,,0.00,WUHU216HW,2013-08-13 14:12:00,
2013-08-13 07:17:00,65.5,55.5,29.92,ESE,118,0.3,0.4,70,0.00,,,0.00,WUHU216HW,2013-08-13 14:17:00,
2013-08-13 07:22:00,66.1,55.6,29.92,ESE,119,0.6,1.6,69,0.00,,,0.00,WUHU216HW,2013-08-13 14:22:00,
2013-08-13 07:27:00,66.6,56.1,29.92,ESE,116,0.6,1.6,69,0.00,,,0.00,WUHU216HW,2013-08-13 14:27:00,
2013-08-13 07:32:00,67.3,56.4,29.92,ESE,106,0.4,0.9,68,0.00,,,0.00,WUHU216HW,2013-08-13 14:32:00,
2013-08-13 07:37:00,67.7,56.4,29.92,SE,124,0.7,1.1,67,0.00,,,0.00,WUHU216HW,2013-08-13 14:37:00,
2013-08-13 07:42:00,68.4,56.6,29.93,ESE,111,0.6,1.6,66,0.00,,,0.00,WUHU216HW,2013-08-13 14:42:00,
2013-08-13 07:47:00,68.8,56.5,29.93,ESE,116,0.8,1.8,65,0.00,,,0.00,WUHU216HW,2013-08-13 14:47:00,
2013-08-13 07:52:00,69.5,56.8,29.93,SE,129,0.9,2.0,64,0.00,,,0.00,WUHU216HW,2013-08-13 14:52:00,
2013-08-13 07:57:00,69.8,56.7,29.93,SE,133,1.5,2.9,63,0.00,,,0.00,WUHU216HW,2013-08-13 14:57:00,
2013-08-13 08:02:00,70.4,57.2,29.93,SE,125,1.0,2.0,63,0.00,,,0.00,WUHU216HW,2013-08-13 15:02:00,
2013-08-13 08:07:00,70.9,56.9,29.93,SE,134,1.7,2.7,61,0.00,,,0.00,WUHU216HW,2013-08-13 15:07:00,
2013-08-13 08:12:00,71.5,57.3,29.93,SE,127,1.0,1.6,61,0.00,,,0.00,WUHU216HW,2013-08-13 15:12:00,
2013-08-13 08:17:00,72.0,56.3,29.93,SE,139,1.4,2.5,58,0.00,,,0.00,WUHU216HW,2013-08-13 15:17:00,
2013-08-13 08:22:00,72.4,56.2,29.93,South,170,2.3,3.1,57,0.00,,,0.00,WUHU216HW,2013-08-13 15:22:00,
2013-08-13 08:27:00,73.1,56.3,29.93,SSE,147,2.4,4.0,56,0.00,,,0.00,WUHU216HW,2013-08-13 15:27:00,
2013-08-13 08:32:00,73.4,56.7,29.93,SSE,156,2.1,3.1,56,0.00,,,0.00,WUHU216HW,2013-08-13 15:32:00,
2013-08-13 08:37:00,73.8,57.1,29.93,SE,143,1.7,2.9,56,0.00,,,0.00,WUHU216HW,2013-08-13 15:37:00,
2013-08-13 08:42:00,74.5,57.2,29.93,SE,128,2.2,2.9,55,0.00,,,0.00,WUHU216HW,2013-08-13 15:42:00,
2013-08-13 08:47:00,74.9,57.1,29.94,SE,141,2.4,2.9,54,0.00,,,0.00,WUHU216HW,2013-08-13 15:47:00,
2013-08-13 08:52:00,75.4,57.2,29.93,SSE,149,2.0,3.4,53,0.00,,,0.00,WUHU216HW,2013-08-13 15:52:00,
2013-08-13 08:57:00,76.0,57.6,29.94,SSE,147,2.2,3.4,53,0.00,,,0.00,WUHU216HW,2013-08-13 15:57:00,
2013-08-13 09:02:00,76.3,56.9,29.93,SSE,154,2.4,3.6,51,0.00,,,0.00,WUHU216HW,2013-08-13 16:02:00,
2013-08-13 09:07:00,76.5,57.1,29.94,SSE,161,2.3,3.8,51,0.00,,,0.00,WUHU216HW,2013-08-13 16:07:00,
2013-08-13 09:12:00,77.0,56.4,29.94,SSE,147,2.8,4.7,49,0.00,,,0.00,WUHU216HW,2013-08-13 16:12:00,
2013-08-13 09:17:00,77.4,57.4,29.94,SSE,156,2.7,3.8,50,0.00,,,0.00,WUHU216HW,2013-08-13 16:17:00,
2013-08-13 09:22:00,77.9,56.1,29.94,SE,134,3.4,4.7,47,0.00,,,0.00,WUHU216HW,2013-08-13 16:22:00,
2013-08-13 09:27:00,78.1,55.6,29.94,SSE,157,2.9,4.7,46,0.00,,,0.00,WUHU216HW,2013-08-13 16:27:00,
2013-08-13 09:32:00,77.8,55.3,29.94,South,182,4.1,5.6,46,0.00,,,0.00,WUHU216HW,2013-08-13 16:32:00,
2013-08-13 09:37:00,78.1,55.6,29.94,SSE,152,3.7,5.4,46,0.00,,,0.00,WUHU216HW,2013-08-13 16:37:00,
2013-08-13 09:42:00,78.5,55.3,29.93,South,171,3.2,5.4,45,0.00,,,0.00,WUHU216HW,2013-08-13 16:42:00,
2013-08-13 09:47:00,78.8,56.3,29.93,South,170,3.7,5.1,46,0.00,,,0.00,WUHU216HW,2013-08-13 16:47:00,
2013-08-13 09:52:00,79.6,56.9,29.94,South,177,2.7,4.7,46,0.00,,,0.00,WUHU216HW,2013-08-13 16:52:00,
2013-08-13 09:57:00,80.1,55.5,29.93,SSE,152,2.6,3.6,43,0.00,,,0.00,WUHU216HW,2013-08-13 16:57:00,
2013-08-13 10:02:00,79.9,56.6,29.93,SSE,164,2.7,4.7,45,0.00,,,0.00,WUHU216HW,2013-08-13 17:02:00,
2013-08-13 10:07:00,81.0,57.6,29.93,SSE,164,2.4,4.0,45,0.00,,,0.00,WUHU216HW,2013-08-13 17:07:00,
2013-08-13 10:12:00,81.4,57.2,29.93,South,178,3.5,4.7,44,0.00,,,0.00,WUHU216HW,2013-08-13 17:12:00,
2013-08-13 10:17:00,82.1,57.3,29.93,South,182,3.2,4.0,43,0.00,,,0.00,WUHU216HW,2013-08-13 17:17:00,
2013-08-13 10:22:00,82.1,56.7,29.93,SSE,151,3.3,5.6,42,0.00,,,0.00,WUHU216HW,2013-08-13 17:22:00,
2013-08-13 10:27:00,82.4,57.6,29.93,SSE,159,3.0,5.8,43,0.00,,,0.00,WUHU216HW,2013-08-13 17:27:00,
2013-08-13 10:32:00,83.2,57.7,29.93,SSE,157,3.1,4.9,42,0.00,,,0.00,WUHU216HW,2013-08-13 17:32:00,
2013-08-13 10:37:00,83.3,57.3,29.93,South,176,3.2,4.9,41,0.00,,,0.00,WUHU216HW,2013-08-13 17:37:00,
2013-08-13 10:42:00,83.7,58.1,29.93,SSE,153,3.0,4.9,42,0.00,,,0.00,WUHU216HW,2013-08-13 17:42:00,
2013-08-13 10:47:00,84.6,58.4,29.92,South,175,2.9,4.7,41,0.00,,,0.00,WUHU216HW,2013-08-13 17:47:00,
2013-08-13 10:52:00,84.6,57.8,29.93,SE,143,2.9,4.9,40,0.00,,,0.00,WUHU216HW,2013-08-13 17:52:00,
2013-08-13 10:57:00,85.3,57.6,29.92,SSW,194,3.1,4.3,39,0.00,,,0.00,WUHU216HW,2013-08-13 17:57:00,
2013-08-13 11:02:00,85.7,58.7,29.92,SSE,152,2.5,4.3,40,0.00,,,0.00,WUHU216HW,2013-08-13 18:02:00,
2013-08-13 11:07:00,86.0,58.2,29.92,SSE,166,2.8,4.3,39,0.00,,,0.00,WUHU216HW,2013-08-13 18:07:00,
2013-08-13 11:12:00,86.4,58.6,29.92,SSE,158,3.7,4.5,39,0.00,,,0.00,WUHU216HW,2013-08-13 18:12:00,
2013-08-13 11:17:00,86.6,58.0,29.92,SSE,150,2.8,4.0,38,0.00,,,0.00,WUHU216HW,2013-08-13 18:17:00,
2013-08-13 11:22:00,87.1,58.4,29.92,SSW,196,3.3,4.7,38,0.00,,,0.00,WUHU216HW,2013-08-13 18:22:00,
2013-08-13 11:27:00,87.5,58.7,29.91,South,169,4.2,6.3,38,0.00,,,0.00,WUHU216HW,2013-08-13 18:27:00,
2013-08-13 11:32:00,87.8,57.4,29.92,South,185,4.1,6.0,36,0.00,,,0.00,WUHU216HW,2013-08-13 18:32:00,
2013-08-13 11:37:00,87.8,59.0,29.91,SSW,195,2.8,4.7,38,0.00,,,0.00,WUHU216HW,2013-08-13 18:37:00,
2013-08-13 11:42:00,88.6,58.1,29.91,SSW,192,3.3,4.7,36,0.00,,,0.00,WUHU216HW,2013-08-13 18:42:00,
2013-08-13 11:47:00,88.9,58.3,29.91,South,187,3.0,4.7,36,0.00,,,0.00,WUHU216HW,2013-08-13 18:47:00,
2013-08-13 11:52:00,88.9,58.3,29.91,SSE,162,3.0,4.3,36,0.00,,,0.00,WUHU216HW,2013-08-13 18:52:00,
2013-08-13 11:57:00,89.3,59.4,29.91,South,180,1.9,4.3,37,0.00,,,0.00,WUHU216HW,2013-08-13 18:57:00,
2013-08-13 12:03:00,89.8,59.1,29.90,South,182,2.7,4.3,36,0.00,,,0.00,WUHU216HW,2013-08-13 19:03:00,
2013-08-13 12:08:00,90.0,59.2,29.90,South,184,2.2,4.7,36,0.00,,,0.00,WUHU216HW,2013-08-13 19:08:00,
2013-08-13 12:13:00,90.5,59.8,29.90,SSE,166,2.4,3.8,36,0.00,,,0.00,WUHU216HW,2013-08-13 19:13:00,
2013-08-13 12:18:00,91.1,59.4,29.90,SSW,198,2.8,4.5,35,0.00,,,0.00,WUHU216HW,2013-08-13 19:18:00,
2013-08-13 12:23:00,91.4,59.8,29.90,South,174,2.1,3.1,35,0.00,,,0.00,WUHU216HW,2013-08-13 19:23:00,
2013-08-13 12:28:00,91.4,59.0,29.90,SSW,201,2.4,4.7,34,0.00,,,0.00,WUHU216HW,2013-08-13 19:28:00,
2013-08-13 12:33:00,91.1,58.7,29.90,SW,219,1.5,3.1,34,0.00,,,0.00,WUHU216HW,2013-08-13 19:33:00,
2013-08-13 12:38:00,91.3,58.8,29.90,SSE,163,1.7,2.7,34,0.00,,,0.00,WUHU216HW,2013-08-13 19:38:00,
2013-08-13 12:43:00,91.8,59.3,29.90,South,191,2.7,4.5,34,0.00,,,0.00,WUHU216HW,2013-08-13 19:43:00,
2013-08-13 12:48:00,91.8,58.5,29.90,SW,222,1.7,2.9,33,0.00,,,0.00,WUHU216HW,2013-08-13 19:48:00,
2013-08-13 12:53:00,91.4,59.0,29.90,West,264,2.0,4.3,34,0.00,,,0.00,WUHU216HW,2013-08-13 19:53:00,
2013-08-13 12:58:00,91.6,59.1,29.90,South,184,2.8,4.0,34,0.00,,,0.00,WUHU216HW,2013-08-13 19:58:00,
2013-08-13 13:03:00,92.2,58.8,29.89,South,189,2.5,4.0,33,0.00,,,0.00,WUHU216HW,2013-08-13 20:03:00,
2013-08-13 13:08:00,92.2,58.0,29.89,SSW,213,2.7,4.7,32,0.00,,,0.00,WUHU216HW,2013-08-13 20:08:00,
2013-08-13 13:13:00,92.2,58.0,29.89,SSW,199,2.6,3.8,32,0.00,,,0.00,WUHU216HW,2013-08-13 20:13:00,
2013-08-13 13:18:00,92.5,58.2,29.89,South,190,3.0,4.7,32,0.00,,,0.00,WUHU216HW,2013-08-13 20:18:00,
2013-08-13 13:23:00,92.7,58.4,29.89,South,184,2.4,4.5,32,0.00,,,0.00,WUHU216HW,2013-08-13 20:23:00,
2013-08-13 13:28:00,93.2,58.1,29.89,West,270,2.3,4.3,31,0.00,,,0.00,WUHU216HW,2013-08-13 20:28:00,
2013-08-13 13:33:00,93.6,58.4,29.89,West,273,3.0,5.4,31,0.00,,,0.00,WUHU216HW,2013-08-13 20:33:00,
2013-08-13 13:38:00,93.8,57.7,29.88,WSW,246,2.6,5.1,30,0.00,,,0.00,WUHU216HW,2013-08-13 20:38:00,
2013-08-13 13:43:00,94.5,57.2,29.88,South,173,2.3,4.0,29,0.00,,,0.00,WUHU216HW,2013-08-13 20:43:00,
2013-08-13 13:48:00,95.0,58.9,29.88,South,175,1.7,4.0,30,0.00,,,0.00,WUHU216HW,2013-08-13 20:48:00,
2013-08-13 13:53:00,95.2,59.1,29.87,SSW,201,2.1,4.0,30,0.00,,,0.00,WUHU216HW,2013-08-13 20:53:00,
2013-08-13 13:58:00,95.0,58.9,29.87,WSW,257,2.9,3.8,30,0.00,,,0.00,WUHU216HW,2013-08-13 20:58:00,
2013-08-13 14:03:00,95.0,58.9,29.87,WNW,290,2.6,4.3,30,0.00,,,0.00,WUHU216HW,2013-08-13 21:03:00,
2013-08-13 14:08:00,95.0,57.8,29.87,SW,219,2.4,4.5,29,0.00,,,0.00,WUHU216HW,2013-08-13 21:08:00,
2013-08-13 14:13:00,95.0,57.8,29.87,West,259,1.7,3.1,29,0.00,,,0.00,WUHU216HW,2013-08-13 21:13:00,
2013-08-13 14:18:00,95.6,58.1,29.87,SSE,167,1.4,3.1,29,0.00,,,0.00,WUHU216HW,2013-08-13 21:18:00,
2013-08-13 14:23:00,96.1,58.6,29.87,South,178,2.5,4.3,29,0.00,,,0.00,WUHU216HW,2013-08-13 21:23:00,
2013-08-13 14:28:00,96.1,56.4,29.87,WNW,287,3.0,4.7,27,0.00,,,0.00,WUHU216HW,2013-08-13 21:28:00,
2013-08-13 14:33:00,95.9,57.3,29.87,WNW,289,2.4,4.3,28,0.00,,,0.00,WUHU216HW,2013-08-13 21:33:00,
2013-08-13 14:38:00,95.9,56.3,29.87,SSW,213,1.9,3.4,27,0.00,,,0.00,WUHU216HW,2013-08-13 21:38:00,
2013-08-13 14:43:00,96.7,56.9,29.87,SSW,205,1.7,3.1,27,0.00,,,0.00,WUHU216HW,2013-08-13 21:43:00,
2013-08-13 14:48:00,96.8,57.0,29.86,SW,232,2.8,4.7,27,0.00,,,0.00,WUHU216HW,2013-08-13 21:48:00,
2013-08-13 14:53:00,96.8,57.0,29.86,WNW,297,2.1,3.8,27,0.00,,,0.00,WUHU216HW,2013-08-13 21:53:00,
2013-08-13 14:58:00,97.6,57.6,29.86,WNW,297,2.8,4.9,27,0.00,,,0.00,WUHU216HW,2013-08-13 21:58:00,
2013-08-13 15:03:00,97.6,56.5,29.86,WNW,297,2.9,4.5,26,0.00,,,0.00,WUHU216HW,2013-08-13 22:03:00,
2013-08-13 15:08:00,97.9,55.7,29.85,West,281,2.0,3.6,25,0.00,,,0.00,WUHU216HW,2013-08-13 22:08:00,
2013-08-13 15:13:00,97.9,56.9,29.85,SW,218,2.1,3.8,26,0.00,,,0.00,WUHU216HW,2013-08-13 22:13:00,
2013-08-13 15:18:00,98.3,56.1,29.84,SW,227,2.7,5.8,25,0.00,,,0.00,WUHU216HW,2013-08-13 22:18:00,
2013-08-13 15:23:00,97.9,55.7,29.84,WNW,296,2.9,5.4,25,0.00,,,0.00,WUHU216HW,2013-08-13 22:23:00,
2013-08-13 15:28:00,98.1,57.0,29.84,WNW,300,2.5,4.9,26,0.00,,,0.00,WUHU216HW,2013-08-13 22:28:00,
2013-08-13 15:33:00,98.8,57.6,29.84,West,279,2.4,4.5,26,0.00,,,0.00,WUHU216HW,2013-08-13 22:33:00,
2013-08-13 15:38:00,99.0,56.6,29.84,West,272,2.4,3.8,25,0.00,,,0.00,WUHU216HW,2013-08-13 22:38:00,
2013-08-13 15:43:00,98.5,56.2,29.83,NW,320,3.4,6.3,25,0.00,,,0.00,WUHU216HW,2013-08-13 22:43:00,
2013-08-13 15:48:00,98.3,56.1,29.83,NW,315,1.6,2.7,25,0.00,,,0.00,WUHU216HW,2013-08-13 22:48:00,
2013-08-13 15:53:00,98.6,55.3,29.83,WNW,291,2.5,6.3,24,0.00,,,0.00,WUHU216HW,2013-08-13 22:53:00,
2013-08-13 15:58:00,98.5,54.0,29.83,NW,315,4.3,6.3,23,0.00,,,0.00,WUHU216HW,2013-08-13 22:58:00,
2013-08-13 16:03:00,98.3,53.8,29.83,NW,310,2.8,4.5,23,0.00,,,0.00,WUHU216HW,2013-08-13 23:03:00,
2013-08-13 16:08:00,98.5,52.8,29.83,NW,315,2.6,5.8,22,0.00,,,0.00,WUHU216HW,2013-08-13 23:08:00,
2013-08-13 16:13:00,98.5,54.0,29.83,NW,313,3.6,6.5,23,0.00,,,0.00,WUHU216HW,2013-08-13 23:13:00,
2013-08-13 16:18:00,98.3,53.8,29.83,NW,312,2.8,8.1,23,0.00,,,0.00,WUHU216HW,2013-08-13 23:18:00,
2013-08-13 16:23:00,98.6,54.1,29.83,West,281,2.6,6.3,23,0.00,,,0.00,WUHU216HW,2013-08-13 23:23:00,
2013-08-13 16:28:00,98.6,54.1,29.83,NW,315,3.0,5.4,23,0.00,,,0.00,WUHU216HW,2013-08-13 23:28:00,
2013-08-13 16:33:00,98.3,53.8,29.82,NW,305,2.8,5.8,23,0.00,,,0.00,WUHU216HW,2013-08-13 23:33:00,
2013-08-13 16:38:00,98.8,54.3,29.82,WNW,283,3.6,6.3,23,0.00,,,0.00,WUHU216HW,2013-08-13 23:38:00,
2013-08-13 16:43:00,99.0,55.5,29.82,WNW,289,3.2,5.4,24,0.00,,,0.00,WUHU216HW,2013-08-13 23:43:00,
2013-08-13 16:48:00,98.8,55.4,29.82,WNW,283,2.3,4.5,24,0.00,,,0.00,WUHU216HW,2013-08-13 23:48:00,
2013-08-13 16:53:00,98.6,55.3,29.82,WNW,296,3.5,6.0,24,0.00,,,0.00,WUHU216HW,2013-08-13 23:53:00,
2013-08-13 16:58:00,98.5,55.1,29.82,NW,307,3.4,5.8,24,0.00,,,0.00,WUHU216HW,2013-08-13 23:58:00,
2013-08-13 17:03:00,98.5,55.1,29.82,WNW,302,4.3,5.6,24,0.00,,,0.00,WUHU216HW,2013-08-14 00:03:00,
2013-08-13 17:08:00,98.3,56.1,29.82,NW,304,3.0,4.7,25,0.00,,,0.00,WUHU216HW,2013-08-14 00:08:00,
2013-08-13 17:13:00,98.3,56.1,29.82,West,279,3.5,7.4,25,0.00,,,0.00,WUHU216HW,2013-08-14 00:13:00,
2013-08-13 17:18:00,98.3,56.1,29.81,WNW,289,3.7,5.6,25,0.00,,,0.00,WUHU216HW,2013-08-14 00:18:00,
2013-08-13 17:23:00,98.3,56.1,29.81,West,275,3.5,4.9,25,0.00,,,0.00,WUHU216HW,2013-08-14 00:23:00,
2013-08-13 17:28:00,98.1,55.9,29.81,WNW,287,3.2,5.8,25,0.00,,,0.00,WUHU216HW,2013-08-14 00:28:00,
2013-08-13 17:33:00,97.9,55.7,29.81,NW,315,2.8,5.4,25,0.00,,,0.00,WUHU216HW,2013-08-14 00:33:00,
2013-08-13 17:38:00,97.9,55.7,29.81,WNW,302,2.7,4.7,25,0.00,,,0.00,WUHU216HW,2013-08-14 00:38:00,
2013-08-13 17:43:00,97.9,55.7,29.81,WNW,291,3.3,4.7,25,0.00,,,0.00,WUHU216HW,2013-08-14 00:43:00,
2013-08-13 17:48:00,97.6,54.4,29.81,WNW,294,3.8,5.4,24,0.00,,,0.00,WUHU216HW,2013-08-14 00:48:00,
2013-08-13 17:53:00,97.6,55.5,29.81,WNW,296,2.8,4.3,25,0.00,,,0.00,WUHU216HW,2013-08-14 00:53:00,
2013-08-13 17:58:00,97.4,55.3,29.81,NW,313,3.0,4.0,25,0.00,,,0.00,WUHU216HW,2013-08-14 00:58:00,
2013-08-13 18:03:00,97.4,55.3,29.81,WNW,302,3.5,5.6,25,0.00,,,0.00,WUHU216HW,2013-08-14 01:03:00,
2013-08-13 18:08:00,97.2,55.1,29.81,NW,310,3.0,4.5,25,0.00,,,0.00,WUHU216HW,2013-08-14 01:08:00,
2013-08-13 18:13:00,97.2,55.1,29.81,WNW,292,3.3,4.9,25,0.00,,,0.00,WUHU216HW,2013-08-14 01:13:00,
2013-08-13 18:18:00,97.0,53.8,29.81,WNW,294,2.7,4.0,24,0.00,,,0.00,WUHU216HW,2013-08-14 01:18:00,
2013-08-13 18:23:00,97.2,55.1,29.81,WNW,303,2.1,3.4,25,0.00,,,0.00,WUHU216HW,2013-08-14 01:23:00,
2013-08-13 18:28:00,97.2,55.1,29.81,NW,304,2.6,4.7,25,0.00,,,0.00,WUHU216HW,2013-08-14 01:28:00,
2013-08-13 18:33:00,96.8,54.8,29.81,WNW,300,2.4,4.0,25,0.00,,,0.00,WUHU216HW,2013-08-14 01:33:00,
2013-08-13 18:38:00,96.8,54.8,29.81,WNW,289,3.1,4.5,25,0.00,,,0.00,WUHU216HW,2013-08-14 01:38:00,
2013-08-13 18:43:00,96.7,54.6,29.81,NW,305,2.5,3.4,25,0.00,,,0.00,WUHU216HW,2013-08-14 01:43:00,
2013-08-13 18:48:00,96.3,54.4,29.81,WNW,299,2.2,4.0,25,0.00,,,0.00,WUHU216HW,2013-08-14 01:48:00,
2013-08-13 18:53:00,96.1,54.2,29.81,WNW,294,2.5,4.0,25,0.00,,,0.00,WUHU216HW,2013-08-14 01:53:00,
2013-08-13 18:58:00,95.9,54.0,29.81,WNW,292,2.5,3.1,25,0.00,,,0.00,WUHU216HW,2013-08-14 01:58:00,
2013-08-13 19:03:00,95.8,55.0,29.81,WNW,292,1.8,2.7,26,0.00,,,0.00,WUHU216HW,2013-08-14 02:03:00,
2013-08-13 19:08:00,95.4,54.7,29.80,WNW,290,2.1,3.4,26,0.00,,,0.00,WUHU216HW,2013-08-14 02:08:00,
2013-08-13 19:13:00,95.2,54.5,29.81,WNW,287,1.4,2.0,26,0.00,,,0.00,WUHU216HW,2013-08-14 02:13:00,
2013-08-13 19:18:00,94.9,55.4,29.81,NW,309,1.1,1.3,27,0.00,,,0.00,WUHU216HW,2013-08-14 02:18:00,
2013-08-13 19:23:00,94.7,55.2,29.81,NW,315,0.8,1.8,27,0.00,,,0.00,WUHU216HW,2013-08-14 02:23:00,
2013-08-13 19:28:00,94.5,56.2,29.81,NW,315,0.6,0.9,28,0.00,,,0.00,WUHU216HW,2013-08-14 02:28:00,
2013-08-13 19:33:00,94.1,58.1,29.81,NW,315,0.4,0.4,30,0.00,,,0.00,WUHU216HW,2013-08-14 02:33:00,
2013-08-13 19:38:00,93.8,57.7,29.81,North,0,0.0,0.0,30,0.00,,,0.00,WUHU216HW,2013-08-14 02:38:00,
2013-08-13 19:43:00,93.2,58.1,29.81,North,0,0.0,0.0,31,0.00,,,0.00,WUHU216HW,2013-08-14 02:43:00,
2013-08-13 19:48:00,92.5,59.0,29.82,North,0,0.0,0.0,33,0.00,,,0.00,WUHU216HW,2013-08-14 02:48:00,
2013-08-13 19:53:00,91.4,59.0,29.82,North,0,0.0,0.0,34,0.00,,,0.00,WUHU216HW,2013-08-14 02:53:00,
2013-08-13 19:58:00,90.5,59.0,29.82,North,0,0.0,0.0,35,0.00,,,0.00,WUHU216HW,2013-08-14 02:58:00,
2013-08-13 20:03:00,89.3,58.6,29.82,North,0,0.0,0.0,36,0.00,,,0.00,WUHU216HW,2013-08-14 03:03:00,
2013-08-13 20:08:00,88.2,59.3,29.82,North,0,0.0,0.0,38,0.00,,,0.00,WUHU216HW,2013-08-14 03:08:00,
2013-08-13 20:18:00,86.6,58.0,29.82,North,0,0.0,0.0,38,0.00,,,0.00,WUHU216HW,2013-08-14 03:18:00,
2013-08-13 20:23:00,86.0,58.2,29.82,North,0,0.0,0.0,39,0.00,,,0.00,WUHU216HW,2013-08-14 03:23:00,
2013-08-13 20:28:00,85.1,58.2,29.82,North,0,0.0,0.0,40,0.00,,,0.00,WUHU216HW,2013-08-14 03:28:00,
2013-08-13 20:33:00,84.4,58.2,29.83,North,0,0.0,0.0,41,0.00,,,0.00,WUHU216HW,2013-08-14 03:33:00,
2013-08-13 20:38:00,83.7,58.1,29.83,North,0,0.0,0.0,42,0.00,,,0.00,WUHU216HW,2013-08-14 03:38:00,
2013-08-13 20:43:00,83.3,57.9,29.83,North,0,0.0,0.0,42,0.00,,,0.00,WUHU216HW,2013-08-14 03:43:00,
2013-08-13 20:48:00,82.8,58.6,29.83,North,0,0.0,0.0,44,0.00,,,0.00,WUHU216HW,2013-08-14 03:48:00,
2013-08-13 20:53:00,82.1,58.5,29.83,North,0,0.0,0.0,45,0.00,,,0.00,WUHU216HW,2013-08-14 03:53:00,
2013-08-13 20:58:00,81.7,58.2,29.83,North,0,0.0,0.0,45,0.00,,,0.00,WUHU216HW,2013-08-14 03:58:00,
2013-08-13 21:03:00,81.4,57.9,29.84,North,0,0.0,0.0,45,0.00,,,0.00,WUHU216HW,2013-08-14 04:03:00,
2013-08-13 21:08:00,81.2,57.7,29.84,North,0,0.0,0.0,45,0.00,,,0.00,WUHU216HW,2013-08-14 04:08:00,
2013-08-13 21:13:00,81.0,58.1,29.84,North,0,0.0,0.0,46,0.00,,,0.00,WUHU216HW,2013-08-14 04:13:00,
2013-08-13 21:18:00,80.6,57.9,29.84,North,0,0.0,0.0,46,0.00,,,0.00,WUHU216HW,2013-08-14 04:18:00,
2013-08-13 21:23:00,80.1,58.0,29.84,North,0,0.0,0.0,47,0.00,,,0.00,WUHU216HW,2013-08-14 04:23:00,
2013-08-13 21:28:00,79.7,57.7,29.84,North,0,0.0,0.0,47,0.00,,,0.00,WUHU216HW,2013-08-14 04:28:00,
2013-08-13 21:33:00,79.2,57.8,29.84,North,0,0.0,0.0,48,0.00,,,0.00,WUHU216HW,2013-08-14 04:33:00,
2013-08-13 21:38:00,78.7,57.9,29.84,North,0,0.0,0.0,49,0.00,,,0.00,WUHU216HW,2013-08-14 04:38:00,
2013-08-13 21:43:00,78.3,57.6,29.85,North,0,0.0,0.0,49,0.00,,,0.00,WUHU216HW,2013-08-14 04:43:00,
2013-08-13 21:48:00,77.9,57.9,29.85,North,0,0.0,0.0,50,0.00,,,0.00,WUHU216HW,2013-08-14 04:48:00,
2013-08-13 21:53:00,77.8,58.2,29.85,North,0,0.0,0.0,51,0.00,,,0.00,WUHU216HW,2013-08-14 04:53:00,
2013-08-13 21:58:00,77.4,57.9,29.85,North,0,0.0,0.0,51,0.00,,,0.00,WUHU216HW,2013-08-14 04:58:00,
2013-08-13 22:03:00,77.0,58.1,29.85,NW,315,0.2,0.2,52,0.00,,,0.00,WUHU216HW,2013-08-14 05:03:00,
2013-08-13 22:08:00,76.9,58.4,29.85,North,0,0.0,0.0,53,0.00,,,0.00,WUHU216HW,2013-08-14 05:08:00,
2013-08-13 22:13:00,76.5,58.1,29.85,North,0,0.0,0.0,53,0.00,,,0.00,WUHU216HW,2013-08-14 05:13:00,
2013-08-13 22:18:00,76.1,58.2,29.85,North,0,0.0,0.0,54,0.00,,,0.00,WUHU216HW,2013-08-14 05:18:00,
2013-08-13 22:23:00,76.0,58.2,29.85,North,0,0.0,0.0,54,0.00,,,0.00,WUHU216HW,2013-08-14 05:23:00,
2013-08-13 22:28:00,75.8,57.4,29.85,North,0,0.0,0.0,53,0.00,,,0.00,WUHU216HW,2013-08-14 05:28:00,
2013-08-13 22:33:00,75.6,57.8,29.85,North,0,0.0,0.0,54,0.00,,,0.00,WUHU216HW,2013-08-14 05:33:00,
2013-08-13 22:38:00,75.4,57.6,29.85,North,0,0.0,0.0,54,0.00,,,0.00,WUHU216HW,2013-08-14 05:38:00,
2013-08-13 22:43:00,75.2,57.4,29.85,North,0,0.0,0.0,54,0.00,,,0.00,WUHU216HW,2013-08-14 05:43:00,
2013-08-13 22:48:00,74.9,57.6,29.86,North,0,0.0,0.0,55,0.00,,,0.00,WUHU216HW,2013-08-14 05:48:00,
2013-08-13 22:53:00,74.9,57.1,29.86,North,0,0.0,0.0,54,0.00,,,0.00,WUHU216HW,2013-08-14 05:53:00,
2013-08-13 22:58:00,74.7,56.9,29.86,North,0,0.0,0.0,54,0.00,,,0.00,WUHU216HW,2013-08-14 05:58:00,
2013-08-13 23:03:00,74.5,57.2,29.86,North,0,0.0,0.0,55,0.00,,,0.00,WUHU216HW,2013-08-14 06:03:00,
2013-08-13 23:08:00,74.2,56.9,29.86,North,0,0.0,0.0,55,0.00,,,0.00,WUHU216HW,2013-08-14 06:08:00,
2013-08-13 23:13:00,73.8,57.1,29.86,North,0,0.0,0.0,56,0.00,,,0.00,WUHU216HW,2013-08-14 06:13:00,
2013-08-13 23:18:00,73.4,56.7,29.86,North,0,0.0,0.0,56,0.00,,,0.00,WUHU216HW,2013-08-14 06:18:00,
2013-08-13 23:23:00,73.1,56.9,29.86,North,0,0.0,0.0,57,0.00,,,0.00,WUHU216HW,2013-08-14 06:23:00,
2013-08-13 23:28:00,72.7,56.5,29.86,North,0,0.0,0.0,57,0.00,,,0.00,WUHU216HW,2013-08-14 06:28:00,
2013-08-13 23:33:00,72.5,56.9,29.87,North,0,0.0,0.0,58,0.00,,,0.00,WUHU216HW,2013-08-14 06:33:00,
2013-08-13 23:38:00,72.2,56.5,29.87,North,0,0.0,0.0,58,0.00,,,0.00,WUHU216HW,2013-08-14 06:38:00,
2013-08-13 23:43:00,72.0,56.3,29.87,North,0,0.0,0.0,58,0.00,,,0.00,WUHU216HW,2013-08-14 06:43:00,
2013-08-13 23:48:00,72.0,56.3,29.87,North,0,0.0,0.0,58,0.00,,,0.00,WUHU216HW,2013-08-14 06:48:00,
2013-08-13 23:53:00,72.0,56.3,29.87,North,0,0.0,0.0,58,0.00,,,0.00,WUHU216HW,2013-08-14 06:53:00,
2013-08-13 23:58:00,72.2,56.5,29.87,North,0,0.0,0.0,58,0.00,,,0.00,WUHU216HW,2013-08-14 06:58:00,